createdAt,value
2016-11-18T00:00:48.248Z,0
2016-11-18T00:02:00.666Z,0
2016-11-18T00:03:14.637Z,0
2016-11-18T00:04:28.334Z,0
2016-11-18T00:05:42.029Z,0
2016-11-18T00:06:55.765Z,0
2016-11-18T00:08:09.534Z,0
2016-11-18T00:09:23.273Z,0
2016-11-18T00:10:37.235Z,0
2016-11-18T00:11:51.008Z,0
2016-11-18T00:13:04.941Z,0
2016-11-18T00:14:18.665Z,0
2016-11-18T00:15:32.506Z,0
2016-11-18T00:16:46.204Z,0
2016-11-18T00:17:59.906Z,0
2016-11-18T00:19:13.614Z,0
2016-11-18T00:20:27.311Z,0
2016-11-18T00:21:41.028Z,0
2016-11-18T00:22:54.734Z,0
2016-11-18T00:24:08.439Z,0
2016-11-18T00:25:22.138Z,0
2016-11-18T00:26:35.845Z,0
2016-11-18T00:27:49.850Z,0
2016-11-18T00:29:03.587Z,0
2016-11-18T00:30:17.320Z,0
2016-11-18T00:31:31.028Z,0
2016-11-18T00:32:44.740Z,0
2016-11-18T00:33:58.655Z,0
2016-11-18T00:35:12.354Z,0
2016-11-18T00:36:26.052Z,0
2016-11-18T00:37:39.813Z,0
2016-11-18T00:38:53.526Z,0
2016-11-18T00:40:07.214Z,0
2016-11-18T00:41:20.910Z,0
2016-11-18T00:42:34.613Z,0
2016-11-18T00:43:48.347Z,0
2016-11-18T00:45:02.062Z,0
2016-11-18T00:46:15.762Z,0
2016-11-18T00:47:29.457Z,0
2016-11-18T00:48:43.262Z,0
2016-11-18T00:49:56.964Z,0
2016-11-18T00:51:10.673Z,0
2016-11-18T00:52:23.095Z,0
2016-11-18T00:53:35.562Z,0
2016-11-18T00:54:49.281Z,0
2016-11-18T00:56:03.015Z,0
2016-11-18T00:57:16.714Z,0
2016-11-18T00:58:30.433Z,0
2016-11-18T00:59:44.155Z,0
2016-11-18T01:00:57.906Z,0
2016-11-18T01:02:11.628Z,0
2016-11-18T01:03:25.598Z,0
2016-11-18T01:04:39.323Z,0
2016-11-18T01:05:53.026Z,0
2016-11-18T01:07:06.725Z,0
2016-11-18T01:08:20.437Z,0
2016-11-18T01:09:32.900Z,0
2016-11-18T01:10:46.700Z,0
2016-11-18T01:12:00.401Z,0
2016-11-18T01:13:12.817Z,0
2016-11-18T01:14:26.749Z,0
2016-11-18T01:15:40.462Z,0
2016-11-18T01:16:54.201Z,0
2016-11-18T01:18:07.899Z,0
2016-11-18T01:19:21.614Z,0
2016-11-18T01:20:35.345Z,0
2016-11-18T01:21:47.802Z,0
2016-11-18T01:23:01.630Z,0
2016-11-18T01:24:15.323Z,0
2016-11-18T01:25:29.029Z,0
2016-11-18T01:26:42.728Z,0
2016-11-18T01:27:56.411Z,0
2016-11-18T01:29:10.152Z,0
2016-11-18T01:30:22.560Z,0
2016-11-18T01:31:36.327Z,0
2016-11-18T01:32:48.744Z,0
2016-11-18T01:34:02.465Z,0
2016-11-18T01:35:16.165Z,0
2016-11-18T01:36:29.884Z,0
2016-11-18T01:37:43.666Z,0
2016-11-18T01:38:57.498Z,0
2016-11-18T01:40:11.241Z,0
2016-11-18T01:41:24.947Z,0
2016-11-18T01:42:38.696Z,0
2016-11-18T01:43:52.383Z,0
2016-11-18T01:45:04.857Z,0
2016-11-18T01:46:18.557Z,0
2016-11-18T01:47:32.351Z,0
2016-11-18T01:48:46.047Z,0
2016-11-18T01:49:59.753Z,0
2016-11-18T01:51:13.705Z,0
2016-11-18T01:52:27.490Z,0
2016-11-18T01:53:39.912Z,0
2016-11-18T01:54:53.668Z,0
2016-11-18T01:56:06.199Z,0
2016-11-18T01:57:19.891Z,0
2016-11-18T01:58:33.625Z,0
2016-11-18T01:59:47.328Z,0
2016-11-18T02:01:01.024Z,0
2016-11-18T02:02:14.728Z,0
2016-11-18T02:03:28.421Z,0
2016-11-18T02:04:42.123Z,0
2016-11-18T02:05:55.865Z,0
2016-11-18T02:07:09.583Z,0
2016-11-18T02:08:23.510Z,0
2016-11-18T02:09:37.241Z,0
2016-11-18T02:10:50.940Z,0
2016-11-18T02:12:04.670Z,0
2016-11-18T02:13:18.383Z,0
2016-11-18T02:14:32.101Z,0
2016-11-18T02:15:45.806Z,0
2016-11-18T02:16:59.563Z,0
2016-11-18T02:18:11.987Z,0
2016-11-18T02:19:24.444Z,0
2016-11-18T02:20:38.162Z,0
2016-11-18T02:21:51.947Z,0
2016-11-18T02:23:04.356Z,0
2016-11-18T02:24:18.044Z,0
2016-11-18T02:25:31.763Z,0
2016-11-18T02:26:45.465Z,0
2016-11-18T02:27:57.893Z,0
2016-11-18T02:29:11.618Z,0
2016-11-18T02:30:25.367Z,0
2016-11-18T02:31:39.051Z,0
2016-11-18T02:32:52.776Z,0
2016-11-18T02:34:06.482Z,0
2016-11-18T02:35:20.187Z,0
2016-11-18T02:36:33.883Z,0
2016-11-18T02:37:47.631Z,0
2016-11-18T02:39:01.342Z,0
2016-11-18T02:40:15.049Z,0
2016-11-18T02:41:28.748Z,0
2016-11-18T02:42:42.436Z,0
2016-11-18T02:43:54.891Z,0
2016-11-18T02:45:08.603Z,0
2016-11-18T02:46:22.325Z,0
2016-11-18T02:47:36.024Z,0
2016-11-18T02:48:49.713Z,0
2016-11-18T02:50:03.416Z,0
2016-11-18T02:51:17.112Z,0
2016-11-18T02:52:29.664Z,0
2016-11-18T02:53:42.122Z,0
2016-11-18T02:54:55.819Z,0
2016-11-18T02:56:09.548Z,0
2016-11-18T02:57:23.253Z,0
2016-11-18T02:58:37.116Z,0
2016-11-18T02:59:50.875Z,0
2016-11-18T03:01:04.573Z,0
2016-11-18T03:02:18.293Z,0
2016-11-18T03:03:31.992Z,0
2016-11-18T03:04:44.452Z,0
2016-11-18T03:05:58.308Z,0
2016-11-18T03:07:12.022Z,0
2016-11-18T03:08:25.720Z,0
2016-11-18T03:09:39.444Z,0
2016-11-18T03:10:51.859Z,0
2016-11-18T03:12:05.584Z,0
2016-11-18T03:13:19.408Z,0
2016-11-18T03:14:30.661Z,0
2016-11-18T03:15:44.390Z,0
2016-11-18T03:16:56.791Z,0
2016-11-18T03:18:10.525Z,0
2016-11-18T03:19:24.356Z,0
2016-11-18T03:20:38.049Z,0
2016-11-18T03:21:51.744Z,0
2016-11-18T03:23:04.321Z,0
2016-11-18T03:24:18.071Z,0
2016-11-18T03:25:31.782Z,0
2016-11-18T03:26:45.485Z,0
2016-11-18T03:27:59.423Z,0
2016-11-18T03:29:13.129Z,0
2016-11-18T03:30:26.912Z,0
2016-11-18T03:31:40.619Z,0
2016-11-18T03:32:54.381Z,0
2016-11-18T03:34:08.137Z,0
2016-11-18T03:35:21.838Z,0
2016-11-18T03:36:35.539Z,0
2016-11-18T03:37:49.240Z,0
2016-11-18T03:39:02.946Z,0
2016-11-18T03:40:16.643Z,0
2016-11-18T03:41:30.404Z,0
2016-11-18T03:42:44.109Z,0
2016-11-18T03:43:57.824Z,0
2016-11-18T03:45:11.561Z,0
2016-11-18T03:46:25.504Z,0
2016-11-18T03:47:39.242Z,0
2016-11-18T03:48:52.936Z,0
2016-11-18T03:50:06.629Z,0
2016-11-18T03:51:20.325Z,0
2016-11-18T03:52:34.033Z,0
2016-11-18T03:53:47.735Z,0
2016-11-18T03:55:01.425Z,0
2016-11-18T03:56:15.150Z,0
2016-11-18T03:57:28.869Z,0
2016-11-18T03:58:41.316Z,0
2016-11-18T03:59:55.021Z,0
2016-11-18T04:01:08.725Z,0
2016-11-18T04:02:22.414Z,0
2016-11-18T04:03:34.848Z,0
2016-11-18T04:04:48.564Z,0
2016-11-18T04:06:02.379Z,0
2016-11-18T04:07:16.102Z,0
2016-11-18T04:08:29.822Z,0
2016-11-18T04:09:43.509Z,0
2016-11-18T04:10:57.203Z,0
2016-11-18T04:12:10.896Z,0
2016-11-18T04:13:24.583Z,0
2016-11-18T04:14:38.336Z,0
2016-11-18T04:15:52.097Z,0
2016-11-18T04:17:06.038Z,0
2016-11-18T04:18:19.735Z,0
2016-11-18T04:19:32.145Z,0
2016-11-18T04:20:46.061Z,0
2016-11-18T04:21:59.792Z,0
2016-11-18T04:23:13.487Z,0
2016-11-18T04:24:27.191Z,0
2016-11-18T04:25:40.900Z,0
2016-11-18T04:26:53.318Z,0
2016-11-18T04:28:07.185Z,0
2016-11-18T04:29:20.887Z,0
2016-11-18T04:30:34.603Z,0
2016-11-18T04:31:48.301Z,0
2016-11-18T04:33:01.994Z,0
2016-11-18T04:34:15.690Z,0
2016-11-18T04:35:29.384Z,0
2016-11-18T04:36:41.796Z,0
2016-11-18T04:37:55.664Z,0
2016-11-18T04:39:08.125Z,0
2016-11-18T04:40:21.826Z,0
2016-11-18T04:41:35.534Z,0
2016-11-18T04:42:49.274Z,0
2016-11-18T04:44:02.973Z,0
2016-11-18T04:45:16.667Z,0
2016-11-18T04:46:30.408Z,0
2016-11-18T04:47:44.212Z,0
2016-11-18T04:48:57.911Z,0
2016-11-18T04:50:11.620Z,0
2016-11-18T04:51:24.021Z,0
2016-11-18T04:52:37.726Z,0
2016-11-18T04:53:51.531Z,0
2016-11-18T04:55:05.299Z,0
2016-11-18T04:56:18.992Z,0
2016-11-18T04:57:31.398Z,0
2016-11-18T04:58:43.824Z,0
2016-11-18T04:59:57.605Z,0
2016-11-18T05:01:11.321Z,0
2016-11-18T05:02:25.031Z,0
2016-11-18T05:03:38.733Z,0
2016-11-18T05:04:52.475Z,0
2016-11-18T05:06:06.165Z,0
2016-11-18T05:07:19.876Z,0
2016-11-18T05:08:32.304Z,0
2016-11-18T05:09:46.091Z,0
2016-11-18T05:10:59.835Z,0
2016-11-18T05:12:13.534Z,0
2016-11-18T05:13:27.243Z,0
2016-11-18T05:14:40.942Z,0
2016-11-18T05:15:53.379Z,0
2016-11-18T05:17:07.135Z,0
2016-11-18T05:18:21.070Z,0
2016-11-18T05:19:34.864Z,0
2016-11-18T05:20:48.651Z,0
2016-11-18T05:22:02.411Z,0
2016-11-18T05:23:14.835Z,0
2016-11-18T05:24:28.554Z,0
2016-11-18T05:25:42.268Z,0
2016-11-18T05:26:55.964Z,0
2016-11-18T05:28:09.671Z,0
2016-11-18T05:29:23.448Z,0
2016-11-18T05:30:37.160Z,0
2016-11-18T05:31:50.856Z,0
2016-11-18T05:33:04.569Z,0
2016-11-18T05:34:18.264Z,0
2016-11-18T05:35:31.977Z,0
2016-11-18T05:36:45.692Z,0
2016-11-18T05:37:59.371Z,0
2016-11-18T05:39:11.951Z,0
2016-11-18T05:40:25.658Z,0
2016-11-18T05:41:39.377Z,0
2016-11-18T05:42:51.796Z,0
2016-11-18T05:44:05.509Z,0
2016-11-18T05:45:19.333Z,0
2016-11-18T05:46:30.472Z,0
2016-11-18T05:47:44.274Z,0
2016-11-18T05:48:58.196Z,0
2016-11-18T05:50:11.908Z,0
2016-11-18T05:51:25.774Z,0
2016-11-18T05:52:38.271Z,0
2016-11-18T05:53:51.998Z,0
2016-11-18T05:55:04.405Z,0
2016-11-18T05:56:18.111Z,0
2016-11-18T05:57:31.819Z,0
2016-11-18T05:58:45.522Z,0
2016-11-18T05:59:59.451Z,0
2016-11-18T06:01:13.285Z,0
2016-11-18T06:02:25.718Z,0
2016-11-18T06:03:39.431Z,0
2016-11-18T06:04:53.188Z,0
2016-11-18T06:06:07.121Z,0
2016-11-18T06:07:20.856Z,0
2016-11-18T06:08:33.316Z,0
2016-11-18T06:09:47.031Z,0
2016-11-18T06:11:00.819Z,0
2016-11-18T06:12:14.522Z,0
2016-11-18T06:13:28.226Z,0
2016-11-18T06:14:41.952Z,0
2016-11-18T06:15:55.679Z,0
2016-11-18T06:17:09.384Z,0
2016-11-18T06:18:23.116Z,0
2016-11-18T06:19:36.887Z,0
2016-11-18T06:20:50.642Z,0
2016-11-18T06:22:04.339Z,0
2016-11-18T06:23:18.293Z,0
2016-11-18T06:24:31.995Z,0
2016-11-18T06:25:45.708Z,0
2016-11-18T06:26:58.249Z,0
2016-11-18T06:28:11.967Z,0
2016-11-18T06:29:25.678Z,0
2016-11-18T06:30:39.378Z,0
2016-11-18T06:31:53.098Z,5
2016-11-18T06:33:06.806Z,5
2016-11-18T06:34:20.943Z,5
2016-11-18T06:35:34.637Z,10
2016-11-18T06:36:48.368Z,10
2016-11-18T06:38:02.110Z,10
2016-11-18T06:39:15.801Z,10
2016-11-18T06:40:29.517Z,15
2016-11-18T06:41:43.261Z,15
2016-11-18T06:42:57.199Z,15
2016-11-18T06:44:10.895Z,15
2016-11-18T06:45:24.596Z,20
2016-11-18T06:46:38.352Z,20
2016-11-18T06:47:52.045Z,25
2016-11-18T06:49:05.748Z,25
2016-11-18T06:50:19.461Z,25
2016-11-18T06:51:33.290Z,25
2016-11-18T06:52:47.006Z,25
2016-11-18T06:54:00.736Z,25
2016-11-18T06:55:13.143Z,20
2016-11-18T06:56:26.874Z,15
2016-11-18T06:57:40.733Z,15
2016-11-18T06:58:54.445Z,20
2016-11-18T07:00:08.172Z,20
2016-11-18T07:01:20.577Z,25
2016-11-18T07:02:34.274Z,25
2016-11-18T07:03:47.971Z,25
2016-11-18T07:05:01.704Z,20
2016-11-18T07:06:15.642Z,30
2016-11-18T07:07:29.357Z,35
2016-11-18T07:08:43.056Z,35
2016-11-18T07:09:54.192Z,35
2016-11-18T07:11:07.905Z,35
2016-11-18T07:12:21.607Z,35
2016-11-18T07:13:35.300Z,35
2016-11-18T07:14:47.703Z,35
2016-11-18T07:16:01.469Z,30
2016-11-18T07:17:15.322Z,30
2016-11-18T07:18:29.032Z,35
2016-11-18T07:19:42.743Z,40
2016-11-18T07:20:56.490Z,55
2016-11-18T07:22:10.200Z,70
2016-11-18T07:23:22.602Z,65
2016-11-18T07:24:36.385Z,75
2016-11-18T07:25:50.082Z,85
2016-11-18T07:27:03.816Z,95
2016-11-18T07:28:17.521Z,100
2016-11-18T07:29:31.236Z,105
2016-11-18T07:30:44.937Z,110
2016-11-18T07:31:56.111Z,110
2016-11-18T07:33:09.807Z,110
2016-11-18T07:34:23.549Z,110
2016-11-18T07:35:37.336Z,110
2016-11-18T07:36:51.042Z,135
2016-11-18T07:38:04.728Z,130
2016-11-18T07:39:18.446Z,145
2016-11-18T07:40:32.462Z,165
2016-11-18T07:41:46.193Z,160
2016-11-18T07:42:59.894Z,170
2016-11-18T07:44:13.592Z,180
2016-11-18T07:45:27.291Z,190
2016-11-18T07:46:40.992Z,200
2016-11-18T07:47:53.419Z,215
2016-11-18T07:49:07.175Z,210
2016-11-18T07:50:20.871Z,235
2016-11-18T07:51:34.580Z,190
2016-11-18T07:52:48.293Z,235
2016-11-18T07:54:01.992Z,280
2016-11-18T07:55:15.708Z,285
2016-11-18T07:56:29.396Z,280
2016-11-18T07:57:43.096Z,260
2016-11-18T07:58:56.795Z,230
2016-11-18T08:00:10.484Z,285
2016-11-18T08:01:24.233Z,230
2016-11-18T08:02:37.939Z,210
2016-11-18T08:03:51.864Z,200
2016-11-18T08:05:05.557Z,210
2016-11-18T08:06:19.278Z,255
2016-11-18T08:07:31.687Z,290
2016-11-18T08:08:45.397Z,280
2016-11-18T08:09:59.142Z,320
2016-11-18T08:11:12.897Z,335
2016-11-18T08:12:26.612Z,440
2016-11-18T08:13:39.043Z,695
2016-11-18T08:14:52.742Z,995
2016-11-18T08:16:06.427Z,1055
2016-11-18T08:17:20.132Z,1190
2016-11-18T08:18:33.831Z,1145
2016-11-18T08:19:47.539Z,1125
2016-11-18T08:21:01.287Z,1160
2016-11-18T08:22:14.999Z,1270
2016-11-18T08:23:27.412Z,350
2016-11-18T08:24:41.111Z,360
2016-11-18T08:25:53.773Z,465
2016-11-18T08:27:07.479Z,1090
2016-11-18T08:28:21.208Z,380
2016-11-18T08:29:33.877Z,955
2016-11-18T08:30:47.586Z,990
2016-11-18T08:32:01.288Z,170
2016-11-18T08:33:15.002Z,235
2016-11-18T08:34:27.558Z,50
2016-11-18T08:35:41.269Z,35
2016-11-18T08:36:55.640Z,40
2016-11-18T08:38:09.353Z,45
2016-11-18T08:39:23.086Z,50
2016-11-18T08:40:36.837Z,60
2016-11-18T08:41:50.562Z,50
2016-11-18T08:43:04.342Z,40
2016-11-18T08:44:16.763Z,40
2016-11-18T08:45:27.948Z,50
2016-11-18T08:46:41.676Z,75
2016-11-18T08:47:55.397Z,100
2016-11-18T08:49:09.112Z,125
2016-11-18T08:50:22.864Z,140
2016-11-18T08:51:36.606Z,105
2016-11-18T08:52:50.322Z,90
2016-11-18T08:54:02.731Z,75
2016-11-18T08:55:16.423Z,70
2016-11-18T08:56:30.177Z,65
2016-11-18T08:57:43.875Z,85
2016-11-18T08:58:57.585Z,110
2016-11-18T09:00:11.285Z,110
2016-11-18T09:01:25.017Z,125
2016-11-18T09:02:37.449Z,140
2016-11-18T09:03:51.147Z,150
2016-11-18T09:05:04.854Z,130
2016-11-18T09:06:18.561Z,120
2016-11-18T09:07:32.290Z,120
2016-11-18T09:08:44.711Z,125
2016-11-18T09:09:58.495Z,130
2016-11-18T09:11:12.205Z,140
2016-11-18T09:12:25.910Z,155
2016-11-18T09:13:39.616Z,175
2016-11-18T09:14:53.566Z,200
2016-11-18T09:16:06.257Z,235
2016-11-18T09:17:19.982Z,250
2016-11-18T09:18:32.883Z,260
2016-11-18T09:19:46.580Z,260
2016-11-18T09:20:58.990Z,260
2016-11-18T09:22:11.435Z,250
2016-11-18T09:23:25.169Z,220
2016-11-18T09:24:38.894Z,195
2016-11-18T09:25:52.601Z,190
2016-11-18T09:27:06.336Z,195
2016-11-18T09:28:20.060Z,205
2016-11-18T09:29:33.757Z,190
2016-11-18T09:30:47.452Z,155
2016-11-18T09:32:01.195Z,130
2016-11-18T09:33:14.897Z,120
2016-11-18T09:34:28.620Z,115
2016-11-18T09:35:42.387Z,105
2016-11-18T09:36:56.100Z,100
2016-11-18T09:38:09.867Z,85
2016-11-18T09:39:23.581Z,75
2016-11-18T09:40:37.302Z,65
2016-11-18T09:41:51.007Z,55
2016-11-18T09:43:04.709Z,45
2016-11-18T09:44:17.128Z,40
2016-11-18T09:45:30.999Z,40
2016-11-18T09:46:44.706Z,40
2016-11-18T09:47:57.125Z,40
2016-11-18T09:49:10.847Z,40
2016-11-18T09:50:23.260Z,40
2016-11-18T09:51:36.979Z,35
2016-11-18T09:52:50.693Z,50
2016-11-18T09:54:04.411Z,50
2016-11-18T09:55:18.130Z,55
2016-11-18T09:56:31.865Z,65
2016-11-18T09:57:44.299Z,115
2016-11-18T09:58:58.261Z,160
2016-11-18T10:00:10.726Z,215
2016-11-18T10:01:24.444Z,295
2016-11-18T10:02:38.142Z,340
2016-11-18T10:03:51.853Z,410
2016-11-18T10:05:05.623Z,425
2016-11-18T10:06:19.331Z,410
2016-11-18T10:07:33.032Z,320
2016-11-18T10:08:46.775Z,275
2016-11-18T10:10:00.512Z,255
2016-11-18T10:11:14.284Z,235
2016-11-18T10:12:28.077Z,205
2016-11-18T10:13:41.781Z,165
2016-11-18T10:14:55.502Z,160
2016-11-18T10:16:09.264Z,155
2016-11-18T10:17:22.974Z,145
2016-11-18T10:18:36.681Z,125
2016-11-18T10:19:49.182Z,120
2016-11-18T10:21:02.903Z,125
2016-11-18T10:22:16.603Z,110
2016-11-18T10:23:30.298Z,115
2016-11-18T10:24:44.010Z,140
2016-11-18T10:25:57.706Z,160
2016-11-18T10:27:11.407Z,205
2016-11-18T10:28:25.092Z,225
2016-11-18T10:29:38.811Z,290
2016-11-18T10:30:52.535Z,295
2016-11-18T10:32:06.228Z,355
2016-11-18T10:33:19.985Z,310
2016-11-18T10:34:33.738Z,255
2016-11-18T10:35:47.741Z,255
2016-11-18T10:37:01.520Z,200
2016-11-18T10:38:15.220Z,205
2016-11-18T10:39:29.038Z,250
2016-11-18T10:40:42.843Z,325
2016-11-18T10:41:56.558Z,490
2016-11-18T10:43:10.266Z,460
2016-11-18T10:44:23.978Z,410
2016-11-18T10:45:37.665Z,295
2016-11-18T10:46:51.405Z,300
2016-11-18T10:48:05.127Z,275
2016-11-18T10:49:18.817Z,220
2016-11-18T10:50:31.242Z,195
2016-11-18T10:51:45.016Z,180
2016-11-18T10:52:58.763Z,175
2016-11-18T10:54:12.500Z,170
2016-11-18T10:55:26.247Z,175
2016-11-18T10:56:39.937Z,175
2016-11-18T10:57:53.646Z,170
2016-11-18T10:59:07.363Z,170
2016-11-18T11:00:21.304Z,145
2016-11-18T11:01:35.006Z,125
2016-11-18T11:02:48.716Z,115
2016-11-18T11:04:02.410Z,125
2016-11-18T11:05:16.167Z,150
2016-11-18T11:06:29.874Z,155
2016-11-18T11:07:43.601Z,150
2016-11-18T11:08:57.331Z,135
2016-11-18T11:10:11.255Z,125
2016-11-18T11:11:24.952Z,110
2016-11-18T11:12:38.696Z,120
2016-11-18T11:13:52.413Z,145
2016-11-18T11:15:06.140Z,150
2016-11-18T11:16:19.825Z,155
2016-11-18T11:17:33.525Z,165
2016-11-18T11:18:47.262Z,200
2016-11-18T11:20:00.984Z,220
2016-11-18T11:21:14.758Z,195
2016-11-18T11:22:28.479Z,155
2016-11-18T11:23:42.279Z,160
2016-11-18T11:24:55.970Z,195
2016-11-18T11:26:09.679Z,175
2016-11-18T11:27:23.409Z,140
2016-11-18T11:28:37.119Z,155
2016-11-18T11:29:49.525Z,150
2016-11-18T11:31:03.251Z,150
2016-11-18T11:32:17.042Z,190
2016-11-18T11:33:29.483Z,240
2016-11-18T11:34:43.165Z,275
2016-11-18T11:35:55.576Z,320
2016-11-18T11:37:09.420Z,345
2016-11-18T11:38:23.129Z,310
2016-11-18T11:39:36.851Z,330
2016-11-18T11:40:50.553Z,230
2016-11-18T11:42:04.298Z,295
2016-11-18T11:43:18.207Z,340
2016-11-18T11:44:31.990Z,340
2016-11-18T11:45:45.722Z,330
2016-11-18T11:46:59.445Z,345
2016-11-18T11:48:13.175Z,380
2016-11-18T11:49:26.892Z,335
2016-11-18T11:50:40.591Z,255
2016-11-18T11:51:52.992Z,210
2016-11-18T11:53:06.746Z,195
2016-11-18T11:54:20.481Z,165
2016-11-18T11:55:32.906Z,165
2016-11-18T11:56:46.826Z,175
2016-11-18T11:58:00.535Z,185
2016-11-18T11:59:14.260Z,220
2016-11-18T12:00:26.946Z,325
2016-11-18T12:01:39.571Z,420
2016-11-18T12:02:53.280Z,415
2016-11-18T12:04:07.029Z,670
2016-11-18T12:05:20.987Z,940
2016-11-18T12:06:34.851Z,950
2016-11-18T12:07:48.548Z,915
2016-11-18T12:09:02.236Z,1130
2016-11-18T12:10:14.713Z,460
2016-11-18T12:11:28.431Z,455
2016-11-18T12:12:42.190Z,590
2016-11-18T12:13:57.449Z,2165
2016-11-18T12:15:12.700Z,1760
2016-11-18T12:16:27.954Z,1435
2016-11-18T12:17:43.268Z,2055
2016-11-18T12:18:58.538Z,2010
2016-11-18T12:20:13.809Z,2060
2016-11-18T12:21:29.065Z,1895
2016-11-18T12:22:42.859Z,1220
2016-11-18T12:23:56.588Z,575
2016-11-18T12:25:10.315Z,515
2016-11-18T12:26:24.044Z,505
2016-11-18T12:27:37.756Z,510
2016-11-18T12:28:51.530Z,510
2016-11-18T12:30:05.249Z,525
2016-11-18T12:31:18.957Z,510
2016-11-18T12:32:32.904Z,420
2016-11-18T12:33:46.626Z,605
2016-11-18T12:35:00.334Z,685
2016-11-18T12:36:14.047Z,755
2016-11-18T12:37:27.764Z,760
2016-11-18T12:38:41.518Z,710
2016-11-18T12:39:55.222Z,660
2016-11-18T12:41:08.962Z,615
2016-11-18T12:42:22.773Z,520
2016-11-18T12:43:36.480Z,535
2016-11-18T12:44:50.189Z,655
2016-11-18T12:46:03.949Z,600
2016-11-18T12:47:17.673Z,555
2016-11-18T12:48:31.407Z,415
2016-11-18T12:49:45.168Z,345
2016-11-18T12:50:58.888Z,320
2016-11-18T12:52:12.852Z,300
2016-11-18T12:53:26.554Z,325
2016-11-18T12:54:40.275Z,340
2016-11-18T12:55:53.995Z,305
2016-11-18T12:57:07.742Z,295
2016-11-18T12:58:21.484Z,265
2016-11-18T12:59:33.942Z,255
2016-11-18T13:00:47.659Z,295
2016-11-18T13:02:01.423Z,345
2016-11-18T13:03:15.174Z,335
2016-11-18T13:04:28.879Z,365
2016-11-18T13:05:42.616Z,435
2016-11-18T13:06:56.604Z,440
2016-11-18T13:08:10.342Z,450
2016-11-18T13:09:24.076Z,510
2016-11-18T13:10:37.785Z,570
2016-11-18T13:11:51.740Z,630
2016-11-18T13:13:05.447Z,465
2016-11-18T13:14:17.880Z,385
2016-11-18T13:15:31.593Z,340
2016-11-18T13:16:44.018Z,330
2016-11-18T13:17:57.724Z,290
2016-11-18T13:19:11.496Z,300
2016-11-18T13:20:25.234Z,280
2016-11-18T13:21:38.947Z,265
2016-11-18T13:22:52.683Z,270
2016-11-18T13:24:06.391Z,280
2016-11-18T13:25:20.089Z,295
2016-11-18T13:26:33.808Z,320
2016-11-18T13:27:46.217Z,310
2016-11-18T13:28:59.926Z,340
2016-11-18T13:30:13.637Z,350
2016-11-18T13:31:27.339Z,340
2016-11-18T13:32:39.788Z,300
2016-11-18T13:33:53.757Z,290
2016-11-18T13:35:07.499Z,275
2016-11-18T13:36:21.219Z,290
2016-11-18T13:37:35.168Z,300
2016-11-18T13:38:48.857Z,335
2016-11-18T13:40:02.565Z,430
2016-11-18T13:41:16.288Z,350
2016-11-18T13:42:30.004Z,290
2016-11-18T13:43:43.734Z,265
2016-11-18T13:44:57.465Z,270
2016-11-18T13:46:11.176Z,280
2016-11-18T13:47:24.898Z,280
2016-11-18T13:48:39.555Z,275
2016-11-18T13:49:57.061Z,285
2016-11-18T13:51:14.522Z,275
2016-11-18T13:52:29.127Z,280
2016-11-18T13:53:41.566Z,245
2016-11-18T13:54:55.275Z,230
2016-11-18T13:56:09.016Z,270
2016-11-18T13:57:22.711Z,240
2016-11-18T13:58:36.502Z,260
2016-11-18T13:59:50.241Z,285
2016-11-18T14:01:03.944Z,225
2016-11-18T14:02:18.035Z,200
2016-11-18T14:03:31.755Z,195
2016-11-18T14:04:45.471Z,175
2016-11-18T14:05:59.205Z,155
2016-11-18T14:07:12.973Z,155
2016-11-18T14:08:26.717Z,165
2016-11-18T14:09:40.474Z,160
2016-11-18T14:10:54.206Z,160
2016-11-18T14:12:07.972Z,155
2016-11-18T14:13:21.935Z,150
2016-11-18T14:14:34.357Z,115
2016-11-18T14:15:48.075Z,90
2016-11-18T14:17:01.797Z,80
2016-11-18T14:18:15.549Z,70
2016-11-18T14:19:29.300Z,70
2016-11-18T14:20:43.007Z,90
2016-11-18T14:21:56.728Z,95
2016-11-18T14:23:10.423Z,85
2016-11-18T14:24:24.133Z,70
2016-11-18T14:25:37.977Z,65
2016-11-18T14:26:51.716Z,65
2016-11-18T14:28:05.493Z,60
2016-11-18T14:29:19.259Z,50
2016-11-18T14:30:33.005Z,40
2016-11-18T14:31:46.720Z,40
2016-11-18T14:33:00.484Z,45
2016-11-18T14:34:14.301Z,40
2016-11-18T14:35:28.046Z,30
2016-11-18T14:36:41.768Z,25
2016-11-18T14:37:55.487Z,25
2016-11-18T14:39:09.212Z,20
2016-11-18T14:40:22.917Z,15
2016-11-18T14:41:36.623Z,15
2016-11-18T14:42:50.331Z,10
2016-11-18T14:44:04.299Z,5
2016-11-18T14:45:18.038Z,5
2016-11-18T14:46:31.732Z,5
2016-11-18T14:47:45.442Z,5
2016-11-18T14:48:59.153Z,10
2016-11-18T14:50:12.910Z,10
2016-11-18T14:51:26.955Z,10
2016-11-18T14:52:40.908Z,5
2016-11-18T14:53:54.681Z,5
2016-11-18T14:55:08.447Z,10
2016-11-18T14:56:22.164Z,5
2016-11-18T14:57:35.912Z,10
2016-11-18T14:58:49.628Z,15
2016-11-18T15:00:03.358Z,10
2016-11-18T15:01:17.185Z,10
2016-11-18T15:02:30.887Z,10
2016-11-18T15:03:45.108Z,10
2016-11-18T15:04:58.805Z,10
2016-11-18T15:06:12.511Z,10
2016-11-18T15:07:26.218Z,10
2016-11-18T15:08:39.944Z,10
2016-11-18T15:09:53.663Z,10
2016-11-18T15:11:07.381Z,10
2016-11-18T15:12:21.345Z,5
2016-11-18T15:13:35.145Z,5
2016-11-18T15:14:48.859Z,5
2016-11-18T15:16:02.633Z,5
2016-11-18T15:17:16.331Z,5
2016-11-18T15:18:30.382Z,5
2016-11-18T15:19:44.122Z,5
2016-11-18T15:20:57.829Z,0
2016-11-18T15:22:11.790Z,0
2016-11-18T15:23:25.493Z,0
2016-11-18T15:24:37.914Z,0
2016-11-18T15:25:51.703Z,0
2016-11-18T15:27:05.451Z,0
2016-11-18T15:28:19.210Z,0
2016-11-18T15:29:32.916Z,0
2016-11-18T15:30:46.652Z,0
2016-11-18T15:32:00.368Z,0
2016-11-18T15:33:14.191Z,0
2016-11-18T15:34:27.980Z,0
2016-11-18T15:35:40.606Z,0
2016-11-18T15:36:54.470Z,0
2016-11-18T15:38:08.217Z,0
2016-11-18T15:39:21.928Z,0
2016-11-18T15:40:35.722Z,0
2016-11-18T15:41:48.281Z,0
2016-11-18T15:43:00.708Z,0
2016-11-18T15:44:14.558Z,0
2016-11-18T15:45:28.265Z,0
2016-11-18T15:46:40.730Z,0
2016-11-18T15:47:53.174Z,0
2016-11-18T15:49:06.923Z,0
2016-11-18T15:50:19.369Z,0
2016-11-18T15:51:33.081Z,0
2016-11-18T15:52:46.781Z,0
2016-11-18T15:54:00.518Z,0
2016-11-18T15:55:14.265Z,0
2016-11-18T15:56:28.076Z,0
2016-11-18T15:57:40.495Z,0
2016-11-18T15:58:54.232Z,0
2016-11-18T16:00:06.890Z,0
2016-11-18T16:01:20.616Z,0
2016-11-18T16:02:33.050Z,0
2016-11-18T16:03:45.516Z,0
2016-11-18T16:04:59.243Z,0
2016-11-18T16:06:13.060Z,0
2016-11-18T16:07:25.535Z,0
2016-11-18T16:08:39.247Z,0
2016-11-18T16:09:53.199Z,0
2016-11-18T16:11:06.917Z,0
2016-11-18T16:12:20.619Z,0
2016-11-18T16:13:34.377Z,0
2016-11-18T16:14:48.101Z,0
2016-11-18T16:16:01.816Z,0
2016-11-18T16:17:15.532Z,0
2016-11-18T16:18:29.260Z,0
2016-11-18T16:19:43.025Z,0
2016-11-18T16:20:56.809Z,0
2016-11-18T16:22:10.747Z,0
2016-11-18T16:23:24.593Z,0
2016-11-18T16:24:38.816Z,0
2016-11-18T16:25:52.630Z,0
2016-11-18T16:27:06.332Z,0
2016-11-18T16:28:20.379Z,0
2016-11-18T16:29:34.111Z,0
2016-11-18T16:30:47.819Z,0
2016-11-18T16:32:01.527Z,0
2016-11-18T16:33:15.589Z,0
2016-11-18T16:34:29.307Z,0
2016-11-18T16:35:43.021Z,0
2016-11-18T16:36:55.476Z,0
2016-11-18T16:38:09.287Z,0
2016-11-18T16:39:21.720Z,0
2016-11-18T16:40:35.435Z,0
2016-11-18T16:41:49.146Z,0
2016-11-18T16:43:02.853Z,0
2016-11-18T16:44:15.277Z,0
2016-11-18T16:45:29.006Z,0
2016-11-18T16:46:41.430Z,0
2016-11-18T16:47:55.168Z,0
2016-11-18T16:49:08.889Z,0
2016-11-18T16:50:22.762Z,0
2016-11-18T16:51:36.509Z,0
2016-11-18T16:52:50.535Z,0
2016-11-18T16:54:04.344Z,0
2016-11-18T16:55:18.116Z,0
2016-11-18T16:56:31.905Z,0
2016-11-18T16:57:45.631Z,0
2016-11-18T16:58:59.340Z,0
2016-11-18T17:00:13.072Z,0
2016-11-18T17:01:26.803Z,0
2016-11-18T17:02:40.673Z,0
2016-11-18T17:04:25.304Z,0
2016-11-18T17:05:39.060Z,0
2016-11-18T17:06:52.791Z,0
2016-11-18T17:08:06.629Z,0
2016-11-18T17:09:20.342Z,0
2016-11-18T17:10:34.090Z,0
2016-11-18T17:11:47.810Z,0
2016-11-18T17:13:01.517Z,0
2016-11-18T17:14:15.235Z,0
2016-11-18T17:15:28.987Z,0
2016-11-18T17:16:42.864Z,0
2016-11-18T17:17:56.617Z,0
2016-11-18T17:19:10.319Z,0
2016-11-18T17:20:22.763Z,0
2016-11-18T17:21:36.715Z,0
2016-11-18T17:22:50.421Z,0
2016-11-18T17:24:04.173Z,0
2016-11-18T17:25:17.986Z,0
2016-11-18T17:26:31.699Z,0
2016-11-18T17:27:45.449Z,0
2016-11-18T17:28:59.194Z,0
2016-11-18T17:30:12.902Z,0
2016-11-18T17:31:25.320Z,0
2016-11-18T17:32:39.074Z,0
2016-11-18T17:33:52.835Z,0
2016-11-18T17:35:05.308Z,0
2016-11-18T17:36:19.039Z,0